| time (UTC) | temp F | wind direction | speed knots | gust knots | rain 1hr in | rain 24hr in | rain mn in | humidity % | barometer mb |
| 20260508034823 | 84 | 144 | 0.9 | 0.9 | 0.00 | 0.00 | 0.21 | 81 | 1008.0 |
| 20260508034323 | 84 | 117 | 0.9 | 0.9 | 0.00 | 0.00 | 0.21 | 81 | 1008.0 |
| 20260508033823 | 84 | 175 | 1.7 | 2.6 | 0.00 | 0.00 | 0.21 | 81 | 1008.0 |
| 20260508033324 | 84 | 137 | 0.9 | 0.9 | 0.00 | 0.00 | 0.21 | 81 | 1008.0 |
| 20260508032826 | 84 | 91 | 1.7 | 1.7 | 0.00 | 0.00 | 0.21 | 81 | 1008.0 |
| 20260508032326 | 84 | 108 | 1.7 | 1.7 | 0.00 | 0.00 | 0.21 | 80 | 1008.0 |
| 20260508031825 | 84 | 166 | 2.6 | 4.3 | 0.00 | 0.00 | 0.21 | 80 | 1008.0 |
| 20260508031324 | 84 | 107 | 0.9 | 0.9 | 0.00 | 0.00 | 0.21 | 81 | 1008.0 |
| 20260508030822 | 84 | 12 | 1.7 | 1.7 | 0.00 | 0.00 | 0.21 | 81 | 1008.0 |
| 20260508030327 | 84 | 108 | 1.7 | 1.7 | 0.00 | 0.00 | 0.21 | 81 | 1008.0 |
| 20260508025823 | 83 | 72 | 0.9 | 1.7 | 0.00 | 0.00 | 0.21 | 81 | 1008.0 |
| 20260508025324 | 83 | 187 | 4.3 | 4.3 | 0.00 | 0.00 | 0.21 | 81 | 1008.0 |
| 20260508024823 | 83 | 76 | 1.7 | 1.7 | 0.00 | 0.00 | 0.21 | 82 | 1008.0 |
| 20260508024322 | 82 | 158 | 0.9 | 0.9 | 0.00 | 0.00 | 0.21 | 83 | 1008.0 |
| 20260508023822 | 82 | 119 | 0.9 | 1.7 | 0.00 | 0.00 | 0.21 | 83 | 1008.0 |
| 20260508023325 | 82 | 71 | 1.7 | 1.7 | 0.00 | 0.00 | 0.21 | 83 | 1008.0 |
| 20260508022823 | 82 | 59 | 1.7 | 1.7 | 0.00 | 0.00 | 0.21 | 83 | 1008.0 |
| 20260508022322 | 82 | 117 | 0.0 | 0.9 | 0.00 | 0.00 | 0.21 | 84 | 1008.0 |
| 20260508021823 | 81 | 54 | 0.9 | 0.9 | 0.00 | 0.00 | 0.21 | 84 | 1008.0 |
| 20260508021325 | 80 | 157 | 0.0 | 0.9 | 0.00 | 0.00 | 0.21 | 85 | 1008.0 |
| 20260508020822 | 80 | 265 | 1.7 | 2.6 | 0.00 | 0.00 | 0.21 | 86 | 1008.0 |
| 20260508020324 | 80 | 241 | 2.6 | 2.6 | 0.00 | 0.00 | 0.21 | 88 | 1008.0 |
| 20260508015822 | 79 | 156 | 0.9 | 1.7 | 0.00 | 0.00 | 0.21 | 89 | 1008.0 |
| 20260508015323 | 78 | 90 | 1.7 | 1.7 | 0.00 | 0.00 | 0.21 | 90 | 1008.0 |
| 20260508014823 | 78 | 146 | 1.7 | 1.7 | 0.00 | 0.00 | 0.21 | 91 | 1008.0 |
| 20260508014322 | 78 | 124 | 0.9 | 0.9 | 0.00 | 0.00 | 0.21 | 92 | 1008.0 |
| 20260508013823 | 77 | 60 | 1.7 | 1.7 | 0.00 | 0.00 | 0.21 | 93 | 1008.0 |
| 20260508013324 | 77 | 99 | 0.9 | 0.9 | 0.00 | 0.00 | 0.21 | 93 | 1008.0 |
| 20260508012823 | 77 | 119 | 0.9 | 0.9 | 0.00 | 0.00 | 0.21 | 93 | 1008.0 |
| 20260508012323 | 77 | 90 | 0.9 | 0.9 | 0.00 | 0.00 | 0.21 | 94 | 1008.0 |
| 20260508011824 | 76 | 74 | 0.9 | 0.9 | 0.00 | 0.00 | 0.21 | 94 | 1008.0 |
| 20260508011322 | 77 | 147 | 0.0 | 0.0 | 0.00 | 0.00 | 0.21 | 94 | 1008.0 |
| 20260508010823 | 76 | 119 | 0.0 | 0.9 | 0.00 | 0.00 | 0.21 | 94 | 1008.0 |
| 20260508010323 | 76 | 95 | 0.0 | 0.9 | 0.00 | 0.00 | 0.21 | 94 | 1008.0 |
| 20260508005824 | 77 | 11 | 1.7 | 1.7 | 0.00 | 0.00 | 0.21 | 94 | 1008.0 |
| 20260508005323 | 77 | 61 | 0.0 | 0.9 | 0.00 | 0.00 | 0.21 | 94 | 1008.0 |
| 20260508004822 | 76 | 117 | 0.0 | 0.0 | 0.00 | 0.00 | 0.21 | 94 | 1007.0 |
| 20260508004325 | 77 | 112 | 0.9 | 0.9 | 0.00 | 0.00 | 0.21 | 94 | 1008.0 |
| 20260508003824 | 76 | 113 | 0.0 | 0.0 | 0.00 | 0.00 | 0.21 | 94 | 1008.0 |
| 20260508003322 | 76 | 112 | 0.0 | 0.0 | 0.00 | 0.00 | 0.21 | 93 | 1008.0 |
| 20260508002825 | 76 | 96 | 0.9 | 0.9 | 0.00 | 0.00 | 0.21 | 93 | 1008.0 |
| 20260508002323 | 76 | 121 | 0.9 | 0.9 | 0.00 | 0.00 | 0.21 | 93 | 1008.0 |
| 20260508001822 | 76 | 121 | 0.0 | 0.0 | 0.00 | 0.00 | 0.21 | 93 | 1008.0 |
| 20260508001325 | 76 | 155 | 0.9 | 0.9 | 0.05 | 0.00 | 0.21 | 93 | 1008.0 |
| 20260508000824 | 76 | 125 | 0.0 | 0.0 | 0.05 | 0.00 | 0.21 | 93 | 1008.0 |
| 20260508000323 | 76 | 123 | 0.0 | 0.9 | 0.07 | 0.00 | 0.20 | 93 | 1008.0 |
| 20260507235824 | 76 | 112 | 0.9 | 1.7 | 0.12 | 0.00 | 0.20 | 93 | 1008.0 |
| 20260507235323 | 76 | 133 | 0.9 | 0.9 | 0.19 | 0.00 | 0.19 | 93 | 1008.0 |
| 20260507234825 | 77 | 104 | 0.0 | 0.9 | 0.19 | 0.00 | 0.18 | 94 | 1008.0 |
| 20260507234322 | 77 | 116 | 0.0 | 0.0 | 0.12 | 0.00 | 0.17 | 94 | 1008.0 |
| 20260507233824 | 76 | 119 | 0.0 | 0.0 | 0.05 | 0.00 | 0.16 | 94 | 1007.0 |
| 20260507233323 | 76 | 128 | 0.0 | 0.0 | 0.00 | 0.00 | 0.15 | 93 | 1007.0 |
| 20260507232825 | 77 | 124 | 0.9 | 0.9 | 0.00 | 0.00 | 0.15 | 94 | 1007.0 |
| 20260507232323 | 76 | 129 | 0.0 | 0.0 | 0.00 | 0.00 | 0.15 | 94 | 1007.0 |
| 20260507231823 | 76 | 157 | 0.9 | 0.9 | 0.00 | 0.00 | 0.15 | 93 | 1007.0 |
| 20260507231322 | 76 | 102 | 0.0 | 0.0 | 0.00 | 0.00 | 0.15 | 93 | 1007.0 |
| 20260507230822 | 76 | 152 | 1.7 | 1.7 | 0.00 | 0.00 | 0.15 | 93 | 1007.0 |
| 20260507230323 | 76 | 117 | 0.9 | 0.9 | 0.00 | 0.00 | 0.15 | 93 | 1007.0 |
| 20260507225824 | 76 | 132 | 0.9 | 0.9 | 0.00 | 0.00 | 0.15 | 93 | 1007.0 |
| 20260507225323 | 76 | 106 | 0.9 | 1.7 | 0.00 | 0.00 | 0.15 | 93 | 1007.0 |
| 20260507224823 | 77 | 129 | 0.0 | 0.0 | 0.00 | 0.00 | 0.15 | 93 | 1007.0 |
| 20260507224322 | 76 | 121 | 0.0 | 0.0 | 0.07 | 0.00 | 0.15 | 92 | 1007.0 |
| 20260507223822 | 77 | 119 | 0.9 | 0.9 | 0.19 | 0.00 | 0.15 | 92 | 1007.0 |
| 20260507223323 | 77 | 99 | 1.7 | 1.7 | 0.59 | 0.00 | 0.14 | 91 | 1007.0 |
| 20260507222822 | 77 | 88 | 0.9 | 0.9 | 0.71 | 0.00 | 0.12 | 90 | 1007.0 |
| 20260507222322 | 78 | 83 | 1.7 | 1.7 | 0.28 | 0.00 | 0.05 | 89 | 1007.0 |
| 20260507221823 | 78 | 60 | 1.7 | 2.6 | 0.00 | 0.00 | 0.00 | 87 | 1007.0 |
| 20260507221324 | 78 | 44 | 0.9 | 0.9 | 0.00 | 0.00 | 0.00 | 85 | 1007.0 |
| 20260507220822 | 79 | 110 | 1.7 | 1.7 | 0.00 | 0.00 | 0.00 | 85 | 1007.0 |
| 20260507220325 | 81 | 312 | 5.2 | 7.8 | 0.00 | 0.00 | 0.00 | 87 | 1007.0 |
| 20260507215825 | 80 | 324 | 0.9 | 1.7 | 0.00 | 0.00 | 0.00 | 87 | 1007.0 |
| 20260507215324 | 80 | 225 | 0.9 | 1.7 | 0.00 | 0.00 | 0.00 | 87 | 1007.0 |
| 20260507214822 | 80 | 90 | 0.9 | 1.7 | 0.00 | 0.00 | 0.00 | 87 | 1007.0 |
| 20260507214322 | 80 | 70 | 0.9 | 0.9 | 0.00 | 0.00 | 0.00 | 87 | 1007.0 |
| 20260507213822 | 80 | 199 | 1.7 | 1.7 | 0.00 | 0.00 | 0.00 | 87 | 1007.0 |
| 20260507213323 | 80 | 134 | 0.9 | 1.7 | 0.00 | 0.00 | 0.00 | 87 | 1007.0 |
| 20260507212826 | 80 | 162 | 0.9 | 0.9 | 0.00 | 0.00 | 0.00 | 87 | 1007.0 |
| 20260507212324 | 80 | 10 | 1.7 | 1.7 | 0.00 | 0.00 | 0.00 | 88 | 1007.0 |
| 20260507211823 | 80 | 124 | 0.9 | 0.9 | 0.00 | 0.00 | 0.00 | 87 | 1007.0 |
| 20260507211322 | 80 | 121 | 0.9 | 0.9 | 0.00 | 0.00 | 0.00 | 87 | 1007.0 |
| 20260507210822 | 80 | 101 | 0.0 | 0.9 | 0.00 | 0.00 | 0.00 | 87 | 1007.0 |
| 20260507210325 | 80 | 213 | 0.9 | 0.9 | 0.00 | 0.00 | 0.00 | 87 | 1007.0 |
| 20260507205822 | 80 | 147 | 0.9 | 1.7 | 0.00 | 0.00 | 0.00 | 87 | 1007.0 |
| 20260507205323 | 80 | 266 | 1.7 | 2.6 | 0.00 | 0.00 | 0.00 | 87 | 1007.0 |
| 20260507204824 | 81 | 213 | 1.7 | 1.7 | 0.00 | 0.00 | 0.00 | 86 | 1007.0 |
| 20260507204323 | 81 | 75 | 0.9 | 0.9 | 0.00 | 0.00 | 0.00 | 86 | 1007.0 |
| 20260507203824 | 81 | 244 | 2.6 | 2.6 | 0.00 | 0.00 | 0.00 | 86 | 1007.0 |
| 20260507203324 | 81 | 105 | 0.0 | 0.9 | 0.00 | 0.00 | 0.00 | 86 | 1007.0 |
| 20260507202825 | 81 | 121 | 0.0 | 0.0 | 0.00 | 0.00 | 0.00 | 86 | 1007.0 |
| 20260507202322 | 82 | 131 | 0.0 | 0.9 | 0.00 | 0.00 | 0.00 | 86 | 1007.0 |
| 20260507201823 | 82 | 133 | 0.9 | 0.9 | 0.00 | 0.00 | 0.00 | 85 | 1007.0 |
| 20260507201323 | 82 | 111 | 0.9 | 0.9 | 0.00 | 0.00 | 0.00 | 85 | 1007.0 |
| 20260507200824 | 83 | 147 | 1.7 | 2.6 | 0.00 | 0.00 | 0.00 | 85 | 1007.0 |
| 20260507200326 | 82 | 126 | 0.0 | 0.9 | 0.00 | 0.00 | 0.00 | 85 | 1007.0 |
| 20260507195822 | 82 | 116 | 0.9 | 0.9 | 0.00 | 0.00 | 0.00 | 85 | 1007.0 |
| 20260507195322 | 83 | 124 | 0.0 | 0.9 | 0.00 | 0.00 | 0.00 | 85 | 1007.0 |
| 20260507194823 | 83 | 91 | 0.9 | 0.9 | 0.00 | 0.00 | 0.00 | 85 | 1007.0 |
| 20260507194324 | 83 | 132 | 0.0 | 0.9 | 0.00 | 0.00 | 0.00 | 86 | 1007.0 |
| 20260507193823 | 83 | 112 | 0.9 | 0.9 | 0.00 | 0.00 | 0.00 | 86 | 1007.0 |
| 20260507193324 | 83 | 163 | 1.7 | 1.7 | 0.00 | 0.00 | 0.00 | 86 | 1008.0 |
| 20260507192824 | 82 | 131 | 0.9 | 0.9 | 0.00 | 0.00 | 0.00 | 86 | 1007.0 |
| 20260507192325 | 82 | 124 | 0.9 | 0.9 | 0.00 | 0.00 | 0.00 | 86 | 1007.0 |
| 20260507191823 | 83 | 137 | 0.9 | 0.9 | 0.00 | 0.00 | 0.00 | 85 | 1008.0 |
| 20260507191323 | 82 | 142 | 0.9 | 0.9 | 0.00 | 0.00 | 0.00 | 85 | 1008.0 |
| 20260507190823 | 83 | 150 | 0.9 | 0.9 | 0.00 | 0.00 | 0.00 | 85 | 1008.0 |
| 20260507190324 | 83 | 125 | 0.9 | 1.7 | 0.00 | 0.00 | 0.00 | 85 | 1008.0 |
| 20260507185823 | 83 | 154 | 0.9 | 0.9 | 0.00 | 0.00 | 0.00 | 85 | 1008.0 |
| 20260507185324 | 83 | 122 | 0.0 | 0.9 | 0.00 | 0.00 | 0.00 | 85 | 1008.0 |
| 20260507184825 | 82 | 122 | 0.0 | 0.9 | 0.00 | 0.00 | 0.00 | 86 | 1008.0 |
| 20260507184323 | 82 | 128 | 0.0 | 0.0 | 0.00 | 0.00 | 0.00 | 86 | 1008.0 |
| 20260507183826 | 82 | 127 | 0.0 | 0.0 | 0.00 | 0.00 | 0.00 | 86 | 1008.0 |
| 20260507183324 | 82 | 128 | 0.0 | 0.0 | 0.00 | 0.00 | 0.00 | 85 | 1008.0 |
| 20260507182827 | 83 | 133 | 0.0 | 0.9 | 0.00 | 0.00 | 0.00 | 85 | 1008.0 |
| 20260507182323 | 83 | 120 | 0.0 | 0.0 | 0.00 | 0.00 | 0.00 | 85 | 1008.0 |
| 20260507181823 | 83 | 127 | 0.0 | 0.0 | 0.00 | 0.00 | 0.00 | 84 | 1008.0 |
| 20260507181324 | 83 | 127 | 0.0 | 0.0 | 0.00 | 0.00 | 0.00 | 83 | 1008.0 |
| 20260507180824 | 84 | 128 | 0.0 | 0.0 | 0.00 | 0.00 | 0.00 | 82 | 1008.0 |
| 20260507180324 | 85 | 116 | 0.0 | 0.0 | 0.00 | 0.00 | 0.00 | 80 | 1008.0 |
| 20260507175824 | 85 | 119 | 0.0 | 0.0 | 0.00 | 0.00 | 0.00 | 80 | 1008.0 |
| 20260507175324 | 85 | 119 | 0.0 | 0.0 | 0.00 | 0.00 | 0.00 | 80 | 1008.0 |
| 20260507174824 | 85 | 121 | 0.0 | 0.0 | 0.00 | 0.00 | 0.00 | 80 | 1009.0 |
| 20260507174327 | 84 | 126 | 0.0 | 0.0 | 0.00 | 0.00 | 0.00 | 81 | 1009.0 |
| 20260507173825 | 84 | 134 | 0.9 | 0.9 | 0.00 | 0.00 | 0.00 | 81 | 1009.0 |
| 20260507173325 | 84 | 133 | 0.9 | 0.9 | 0.00 | 0.00 | 0.00 | 81 | 1009.0 |
| 20260507172826 | 84 | 136 | 0.9 | 0.9 | 0.00 | 0.00 | 0.00 | 80 | 1009.0 |
| 20260507172327 | 83 | 117 | 0.0 | 0.0 | 0.00 | 0.00 | 0.00 | 82 | 1009.0 |
| 20260507171824 | 83 | 101 | 0.9 | 0.9 | 0.00 | 0.00 | 0.00 | 83 | 1009.0 |
| 20260507171325 | 83 | 119 | 0.0 | 0.9 | 0.00 | 0.00 | 0.00 | 83 | 1008.0 |
| 20260507170824 | 83 | 106 | 0.9 | 1.7 | 0.00 | 0.00 | 0.00 | 82 | 1008.0 |
| 20260507170325 | 83 | 108 | 0.0 | 0.9 | 0.00 | 0.00 | 0.00 | 83 | 1008.0 |
| 20260507165823 | 83 | 93 | 0.9 | 1.7 | 0.00 | 0.00 | 0.00 | 82 | 1008.0 |
| 20260507165326 | 83 | 97 | 0.9 | 1.7 | 0.00 | 0.00 | 0.00 | 82 | 1008.0 |
| 20260507164824 | 84 | 95 | 0.9 | 0.9 | 0.00 | 0.00 | 0.00 | 82 | 1008.0 |
| 20260507164326 | 84 | 110 | 0.9 | 0.9 | 0.00 | 0.00 | 0.00 | 81 | 1008.0 |
| 20260507163824 | 84 | 93 | 0.9 | 0.9 | 0.00 | 0.00 | 0.00 | 81 | 1008.0 |
| 20260507163324 | 84 | 116 | 0.0 | 0.0 | 0.00 | 0.00 | 0.00 | 81 | 1008.0 |
| 20260507162826 | 84 | 97 | 1.7 | 1.7 | 0.00 | 0.00 | 0.00 | 80 | 1008.0 |
| 20260507162324 | 84 | 92 | 2.6 | 2.6 | 0.00 | 0.00 | 0.00 | 80 | 1008.0 |
| 20260507161822 | 84 | 180 | 1.7 | 1.7 | 0.00 | 0.00 | 0.00 | 80 | 1008.0 |
| 20260507161327 | 84 | 138 | 1.7 | 1.7 | 0.00 | 0.00 | 0.00 | 80 | 1008.0 |
| 20260507160825 | 84 | 91 | 0.9 | 0.9 | 0.00 | 0.00 | 0.00 | 79 | 1008.0 |
| 20260507160324 | 84 | 105 | 0.9 | 1.7 | 0.00 | 0.00 | 0.00 | 79 | 1008.0 |
| 20260507155825 | 84 | 108 | 0.9 | 0.9 | 0.00 | 0.00 | 0.00 | 79 | 1008.0 |
| 20260507155324 | 84 | 101 | 2.6 | 2.6 | 0.00 | 0.00 | 0.00 | 78 | 1008.0 |
| 20260507154824 | 84 | 120 | 0.9 | 0.9 | 0.00 | 0.00 | 0.00 | 78 | 1008.0 |
| 20260507154322 | 84 | 132 | 0.9 | 0.9 | 0.00 | 0.00 | 0.00 | 78 | 1008.0 |
| 20260507153825 | 85 | 122 | 0.9 | 0.9 | 0.00 | 0.00 | 0.00 | 78 | 1008.0 |
| 20260507153325 | 85 | 128 | 0.9 | 0.9 | 0.00 | 0.00 | 0.00 | 78 | 1008.0 |
| 20260507152826 | 85 | 164 | 1.7 | 1.7 | 0.00 | 0.00 | 0.00 | 78 | 1008.0 |
| 20260507152326 | 85 | 127 | 0.9 | 1.7 | 0.00 | 0.00 | 0.00 | 78 | 1008.0 |
| 20260507151825 | 85 | 101 | 1.7 | 1.7 | 0.00 | 0.00 | 0.00 | 77 | 1007.0 |
| 20260507151324 | 85 | 134 | 0.0 | 0.0 | 0.00 | 0.00 | 0.00 | 78 | 1007.0 |
| 20260507150823 | 85 | 112 | 0.0 | 0.0 | 0.00 | 0.00 | 0.00 | 77 | 1007.0 |
| 20260507150326 | 85 | 121 | 0.0 | 0.0 | 0.00 | 0.00 | 0.00 | 77 | 1007.0 |
| 20260507145825 | 85 | 130 | 0.9 | 0.9 | 0.00 | 0.00 | 0.00 | 77 | 1007.0 |
| 20260507145327 | 85 | 119 | 0.0 | 0.0 | 0.00 | 0.00 | 0.00 | 77 | 1007.0 |
| 20260507144825 | 85 | 94 | 0.9 | 1.7 | 0.00 | 0.00 | 0.00 | 77 | 1007.0 |
| 20260507144325 | 85 | 140 | 0.9 | 0.9 | 0.00 | 0.00 | 0.00 | 77 | 1007.0 |
| 20260507143825 | 85 | 105 | 0.9 | 0.9 | 0.00 | 0.00 | 0.00 | 77 | 1006.0 |
| 20260507143323 | 86 | 114 | 0.9 | 0.9 | 0.00 | 0.00 | 0.00 | 76 | 1006.0 |
| 20260507142825 | 86 | 121 | 0.9 | 0.9 | 0.00 | 0.00 | 0.00 | 76 | 1006.0 |
| 20260507142324 | 86 | 107 | 0.0 | 0.0 | 0.00 | 0.00 | 0.00 | 76 | 1006.0 |
| 20260507141825 | 86 | 116 | 0.0 | 0.0 | 0.00 | 0.00 | 0.00 | 76 | 1006.0 |
| 20260507141323 | 86 | 113 | 0.0 | 0.0 | 0.00 | 0.00 | 0.00 | 76 | 1006.0 |
| 20260507140828 | 86 | 125 | 0.0 | 0.0 | 0.00 | 0.00 | 0.00 | 75 | 1006.0 |
| 20260507140324 | 86 | 121 | 0.0 | 0.0 | 0.00 | 0.00 | 0.00 | 75 | 1005.0 |
| 20260507135824 | 86 | 126 | 0.0 | 0.9 | 0.00 | 0.00 | 0.00 | 75 | 1005.0 |
| 20260507135326 | 86 | 133 | 0.0 | 0.0 | 0.00 | 0.00 | 0.00 | 74 | 1005.0 |
| 20260507134826 | 86 | 131 | 0.9 | 0.9 | 0.00 | 0.00 | 0.00 | 75 | 1005.0 |
| 20260507134325 | 86 | 121 | 0.0 | 0.0 | 0.00 | 0.00 | 0.00 | 74 | 1005.0 |
| 20260507133822 | 86 | 56 | 3.5 | 4.3 | 0.00 | 0.00 | 0.00 | 74 | 1005.0 |
| 20260507133325 | 87 | 114 | 1.7 | 1.7 | 0.00 | 0.00 | 0.00 | 74 | 1005.0 |
| 20260507132827 | 87 | 108 | 0.9 | 1.7 | 0.00 | 0.00 | 0.00 | 74 | 1005.0 |
| 20260507132325 | 87 | 86 | 1.7 | 1.7 | 0.00 | 0.00 | 0.00 | 74 | 1005.0 |
| 20260507131825 | 87 | 111 | 0.0 | 0.9 | 0.00 | 0.00 | 0.00 | 74 | 1005.0 |
| 20260507131324 | 87 | 108 | 0.9 | 1.7 | 0.00 | 0.00 | 0.00 | 73 | 1005.0 |
| 20260507130825 | 87 | 140 | 1.7 | 2.6 | 0.00 | 0.00 | 0.00 | 73 | 1005.0 |
| 20260507130325 | 87 | 121 | 0.9 | 0.9 | 0.00 | 0.00 | 0.00 | 73 | 1005.0 |
| 20260507125823 | 87 | 117 | 2.6 | 2.6 | 0.00 | 0.00 | 0.00 | 73 | 1004.0 |
| 20260507125323 | 87 | 174 | 1.7 | 2.6 | 0.00 | 0.00 | 0.00 | 73 | 1004.0 |
| 20260507124824 | 88 | 145 | 0.9 | 0.9 | 0.00 | 0.00 | 0.00 | 73 | 1004.0 |
| 20260507124324 | 88 | 106 | 2.6 | 4.3 | 0.00 | 0.00 | 0.00 | 73 | 1004.0 |
| 20260507123824 | 88 | 77 | 2.6 | 2.6 | 0.00 | 0.00 | 0.00 | 72 | 1004.0 |
| 20260507123323 | 88 | 113 | 1.7 | 1.7 | 0.00 | 0.00 | 0.00 | 72 | 1004.0 |
| 20260507122824 | 88 | 325 | 1.7 | 2.6 | 0.00 | 0.00 | 0.00 | 72 | 1004.0 |
| 20260507122325 | 88 | 81 | 2.6 | 2.6 | 0.00 | 0.00 | 0.00 | 72 | 1004.0 |
| 20260507121826 | 88 | 121 | 0.9 | 1.7 | 0.00 | 0.00 | 0.00 | 72 | 1004.0 |
| 20260507121323 | 89 | 108 | 2.6 | 2.6 | 0.00 | 0.00 | 0.00 | 72 | 1004.0 |
| 20260507120824 | 89 | 93 | 3.5 | 4.3 | 0.00 | 0.00 | 0.00 | 72 | 1004.0 |
| 20260507120323 | 89 | 56 | 2.6 | 2.6 | 0.00 | 0.00 | 0.00 | 71 | 1004.0 |
| 20260507115824 | 89 | 111 | 1.7 | 1.7 | 0.00 | 0.00 | 0.00 | 71 | 1004.0 |
| 20260507115326 | 89 | 90 | 2.6 | 2.6 | 0.00 | 0.00 | 0.00 | 71 | 1004.0 |
| 20260507114823 | 89 | 50 | 2.6 | 2.6 | 0.00 | 0.00 | 0.00 | 71 | 1004.0 |
| 20260507114324 | 89 | 60 | 2.6 | 4.3 | 0.00 | 0.00 | 0.00 | 71 | 1004.0 |
| 20260507113827 | 89 | 81 | 4.3 | 5.2 | 0.00 | 0.00 | 0.00 | 71 | 1004.0 |
| 20260507113324 | 89 | 79 | 4.3 | 6.1 | 0.00 | 0.00 | 0.00 | 71 | 1004.0 |
| 20260507112823 | 89 | 93 | 0.9 | 0.9 | 0.00 | 0.00 | 0.00 | 71 | 1004.0 |
| 20260507112324 | 89 | 105 | 1.7 | 2.6 | 0.00 | 0.00 | 0.00 | 71 | 1004.0 |
| 20260507111828 | 89 | 80 | 2.6 | 2.6 | 0.00 | 0.00 | 0.00 | 71 | 1004.0 |
| 20260507111325 | 89 | 113 | 3.5 | 6.1 | 0.00 | 0.00 | 0.00 | 71 | 1004.0 |
| 20260507110827 | 90 | 110 | 0.9 | 1.7 | 0.00 | 0.00 | 0.00 | 71 | 1004.0 |
| 20260507110322 | 90 | 88 | 0.9 | 0.9 | 0.00 | 0.00 | 0.00 | 71 | 1004.0 |
| 20260507105823 | 89 | 75 | 4.3 | 5.2 | 0.00 | 0.00 | 0.00 | 71 | 1004.0 |
| 20260507105325 | 90 | 95 | 3.5 | 4.3 | 0.00 | 0.00 | 0.00 | 71 | 1004.0 |
| 20260507104824 | 91 | 46 | 4.3 | 5.2 | 0.00 | 0.00 | 0.00 | 70 | 1004.0 |
| 20260507104323 | 91 | 145 | 3.5 | 5.2 | 0.00 | 0.00 | 0.00 | 69 | 1004.0 |
| 20260507103828 | 91 | 133 | 6.1 | 8.7 | 0.00 | 0.00 | 0.00 | 69 | 1004.0 |
| 20260507103325 | 92 | 94 | 3.5 | 4.3 | 0.00 | 0.00 | 0.00 | 67 | 1004.0 |
| 20260507102824 | 94 | 129 | 3.5 | 5.2 | 0.00 | 0.00 | 0.00 | 64 | 1004.0 |
| 20260507102324 | 94 | 86 | 1.7 | 2.6 | 0.00 | 0.00 | 0.00 | 59 | 1004.0 |
| 20260507101827 | 96 | 119 | 0.9 | 1.7 | 0.00 | 0.00 | 0.00 | 58 | 1004.0 |
| 20260507101323 | 97 | 84 | 0.9 | 0.9 | 0.00 | 0.00 | 0.00 | 56 | 1004.0 |
| 20260507100827 | 97 | 111 | 0.9 | 0.9 | 0.00 | 0.00 | 0.00 | 53 | 1004.0 |
| 20260507100325 | 97 | 111 | 0.0 | 0.0 | 0.00 | 0.00 | 0.00 | 55 | 1004.0 |
| 20260507095826 | 97 | 109 | 0.9 | 0.9 | 0.00 | 0.00 | 0.00 | 54 | 1004.0 |
| 20260507095326 | 98 | 33 | 0.9 | 1.7 | 0.00 | 0.00 | 0.00 | 55 | 1004.0 |
| 20260507094824 | 98 | 113 | 0.9 | 1.7 | 0.00 | 0.00 | 0.00 | 55 | 1004.0 |
| 20260507094324 | 98 | 79 | 1.7 | 2.6 | 0.00 | 0.00 | 0.00 | 54 | 1004.0 |
| 20260507093824 | 100 | 93 | 0.9 | 0.9 | 0.00 | 0.00 | 0.00 | 53 | 1004.0 |
| 20260507093326 | 101 | 121 | 2.6 | 2.6 | 0.00 | 0.00 | 0.00 | 50 | 1004.0 |
| 20260507092824 | 100 | 131 | 0.0 | 0.9 | 0.00 | 0.00 | 0.00 | 52 | 1004.0 |
| 20260507092327 | 97 | 77 | 1.7 | 2.6 | 0.00 | 0.00 | 0.00 | 54 | 1004.0 |
| 20260507091826 | 97 | 260 | 0.9 | 1.7 | 0.00 | 0.00 | 0.00 | 54 | 1004.0 |
| 20260507091323 | 95 | 100 | 0.9 | 1.7 | 0.00 | 0.00 | 0.00 | 57 | 1004.0 |
| 20260507090826 | 95 | 109 | 0.9 | 1.7 | 0.00 | 0.00 | 0.00 | 58 | 1004.0 |
| 20260507090328 | 96 | 103 | 0.9 | 0.9 | 0.00 | 0.00 | 0.00 | 58 | 1005.0 |
| 20260507085823 | 96 | 124 | 0.9 | 0.9 | 0.00 | 0.00 | 0.00 | 57 | 1005.0 |
| 20260507085327 | 97 | 121 | 0.9 | 0.9 | 0.00 | 0.00 | 0.00 | 57 | 1005.0 |
| 20260507084824 | 97 | 94 | 0.9 | 0.9 | 0.00 | 0.00 | 0.00 | 55 | 1005.0 |
| 20260507084324 | 97 | 123 | 0.9 | 0.9 | 0.00 | 0.00 | 0.00 | 55 | 1005.0 |
| 20260507083827 | 98 | 106 | 0.9 | 0.9 | 0.00 | 0.00 | 0.00 | 55 | 1005.0 |
| 20260507083322 | 98 | 59 | 1.7 | 2.6 | 0.00 | 0.00 | 0.00 | 54 | 1005.0 |
| 20260507082822 | 98 | 109 | 0.0 | 0.0 | 0.00 | 0.00 | 0.00 | 54 | 1005.0 |
| 20260507082326 | 100 | 108 | 1.7 | 1.7 | 0.00 | 0.00 | 0.00 | 52 | 1005.0 |
| 20260507081825 | 99 | 349 | 2.6 | 2.6 | 0.00 | 0.00 | 0.00 | 53 | 1005.0 |
| 20260507081324 | 100 | 328 | 2.6 | 2.6 | 0.00 | 0.00 | 0.00 | 53 | 1005.0 |
| 20260507080825 | 99 | 112 | 0.9 | 0.9 | 0.00 | 0.00 | 0.00 | 53 | 1005.0 |
| 20260507080326 | 98 | 111 | 1.7 | 1.7 | 0.00 | 0.00 | 0.00 | 54 | 1005.0 |
| 20260507075824 | 98 | 119 | 0.9 | 1.7 | 0.00 | 0.00 | 0.00 | 55 | 1005.0 |
| 20260507075323 | 99 | 108 | 1.7 | 1.7 | 0.00 | 0.00 | 0.00 | 54 | 1005.0 |
| 20260507074822 | 97 | 80 | 1.7 | 1.7 | 0.00 | 0.00 | 0.00 | 56 | 1005.0 |
| 20260507074323 | 97 | 170 | 0.9 | 0.9 | 0.00 | 0.00 | 0.00 | 56 | 1006.0 |
| 20260507073826 | 95 | 189 | 0.9 | 0.9 | 0.00 | 0.00 | 0.00 | 57 | 1006.0 |
| 20260507073325 | 96 | 157 | 2.6 | 4.3 | 0.00 | 0.00 | 0.00 | 57 | 1006.0 |
| 20260507072822 | 97 | 179 | 1.7 | 1.7 | 0.00 | 0.00 | 0.00 | 56 | 1006.0 |
| 20260507072323 | 96 | 25 | 3.5 | 4.3 | 0.00 | 0.00 | 0.00 | 57 | 1006.0 |
| 20260507071825 | 97 | 245 | 1.7 | 1.7 | 0.00 | 0.00 | 0.00 | 58 | 1006.0 |
| 20260507071324 | 97 | 127 | 0.0 | 0.0 | 0.00 | 0.00 | 0.00 | 57 | 1006.0 |
| 20260507070824 | 97 | 68 | 0.9 | 0.9 | 0.00 | 0.00 | 0.00 | 57 | 1006.0 |
| 20260507070323 | 98 | 3 | 1.7 | 2.6 | 0.00 | 0.00 | 0.00 | 58 | 1006.0 |
| 20260507065822 | 96 | 134 | 0.0 | 0.0 | 0.00 | 0.00 | 0.00 | 58 | 1006.0 |
| 20260507065324 | 96 | 131 | 0.9 | 1.7 | 0.00 | 0.00 | 0.00 | 58 | 1007.0 |
| 20260507064824 | 95 | 122 | 0.9 | 0.9 | 0.00 | 0.00 | 0.00 | 60 | 1007.0 |
| 20260507064325 | 94 | 174 | 0.9 | 0.9 | 0.00 | 0.00 | 0.00 | 61 | 1007.0 |
| 20260507063828 | 94 | 177 | 1.7 | 1.7 | 0.00 | 0.00 | 0.00 | 62 | 1007.0 |
| 20260507063324 | 95 | 140 | 0.9 | 0.9 | 0.00 | 0.00 | 0.00 | 61 | 1007.0 |
| 20260507062825 | 95 | 123 | 0.0 | 0.0 | 0.00 | 0.00 | 0.00 | 58 | 1007.0 |
| 20260507062327 | 94 | 299 | 2.6 | 2.6 | 0.00 | 0.00 | 0.00 | 60 | 1007.0 |
| 20260507061826 | 94 | 55 | 0.9 | 0.9 | 0.00 | 0.00 | 0.00 | 59 | 1007.0 |
| 20260507061327 | 95 | 110 | 0.0 | 0.9 | 0.00 | 0.00 | 0.00 | 60 | 1007.0 |
| 20260507060823 | 95 | 60 | 0.9 | 1.7 | 0.00 | 0.00 | 0.00 | 59 | 1007.0 |
| 20260507060324 | 93 | 160 | 1.7 | 2.6 | 0.00 | 0.00 | 0.00 | 62 | 1007.0 |
| 20260507055823 | 94 | 163 | 3.5 | 4.3 | 0.00 | 0.00 | 0.00 | 62 | 1008.0 |
| 20260507055323 | 93 | 162 | 0.9 | 1.7 | 0.00 | 0.00 | 0.00 | 62 | 1008.0 |
| 20260507054824 | 94 | 178 | 1.7 | 1.7 | 0.00 | 0.00 | 0.00 | 61 | 1008.0 |
| 20260507054323 | 95 | 118 | 1.7 | 1.7 | 0.00 | 0.00 | 0.00 | 58 | 1008.0 |
| 20260507053824 | 93 | 116 | 0.0 | 0.9 | 0.00 | 0.00 | 0.00 | 63 | 1008.0 |
| 20260507053327 | 92 | 101 | 0.9 | 0.9 | 0.00 | 0.00 | 0.00 | 63 | 1008.0 |
| 20260507052826 | 92 | 127 | 0.0 | 0.9 | 0.00 | 0.00 | 0.00 | 62 | 1008.0 |
| 20260507052325 | 91 | 17 | 2.6 | 2.6 | 0.00 | 0.00 | 0.00 | 66 | 1008.0 |
| 20260507051822 | 91 | 125 | 1.7 | 1.7 | 0.00 | 0.00 | 0.00 | 67 | 1008.0 |
| 20260507051324 | 91 | 110 | 0.0 | 0.0 | 0.00 | 0.00 | 0.00 | 68 | 1008.0 |
| 20260507050825 | 91 | 208 | 0.9 | 1.7 | 0.00 | 0.00 | 0.00 | 68 | 1008.0 |
| 20260507050324 | 91 | 32 | 1.7 | 1.7 | 0.00 | 0.00 | 0.00 | 69 | 1008.0 |
| 20260507045825 | 89 | 118 | 1.7 | 1.7 | 0.00 | 0.00 | 0.00 | 71 | 1009.0 |
| 20260507045323 | 88 | 156 | 0.0 | 0.9 | 0.00 | 0.00 | 0.00 | 73 | 1008.0 |
| 20260507044825 | 88 | 123 | 0.9 | 0.9 | 0.00 | 0.00 | 0.00 | 73 | 1008.0 |
| 20260507044323 | 90 | 115 | 2.6 | 4.3 | 0.00 | 0.00 | 0.00 | 69 | 1008.0 |
| 20260507043822 | 91 | 241 | 1.7 | 1.7 | 0.00 | 0.00 | 0.00 | 69 | 1009.0 |
| 20260507043324 | 89 | 117 | 0.0 | 0.0 | 0.00 | 0.00 | 0.00 | 70 | 1009.0 |
| 20260507042823 | 88 | 144 | 2.6 | 2.6 | 0.00 | 0.00 | 0.00 | 72 | 1009.0 |
| 20260507042326 | 88 | 308 | 1.7 | 1.7 | 0.00 | 0.00 | 0.00 | 72 | 1009.0 |
| 20260507041825 | 88 | 128 | 0.0 | 0.9 | 0.00 | 0.00 | 0.00 | 74 | 1009.0 |
| 20260507041323 | 89 | 114 | 0.9 | 1.7 | 0.00 | 0.00 | 0.00 | 73 | 1009.0 |
| 20260507040822 | 89 | 105 | 0.9 | 1.7 | 0.00 | 0.00 | 0.00 | 72 | 1009.0 |
| 20260507040325 | 89 | 150 | 2.6 | 2.6 | 0.00 | 0.00 | 0.00 | 72 | 1009.0 |
| 20260507035824 | 88 | 113 | 0.0 | 0.9 | 0.00 | 0.00 | 0.00 | 74 | 1009.0 |
| 20260507035324 | 87 | 165 | 0.9 | 1.7 | 0.00 | 0.00 | 0.00 | 75 | 1009.0 |